createdAt,value
2023-03-26T00:00:16.919Z,100477.03
2023-03-26T00:02:47.324Z,100464.16
2023-03-26T00:05:17.488Z,100471.19
2023-03-26T00:07:48.338Z,100480.59
2023-03-26T00:10:18.198Z,100480.00
2023-03-26T00:12:48.496Z,100475.22
2023-03-26T00:15:18.594Z,100478.53
2023-03-26T00:17:48.870Z,100467.47
2023-03-26T00:20:18.834Z,100458.25
2023-03-26T00:22:49.132Z,100464.47
2023-03-26T00:25:19.314Z,100466.59
2023-03-26T00:27:50.729Z,100456.03
2023-03-26T00:30:20.704Z,100458.78
2023-03-26T00:32:53.714Z,100448.03
2023-03-26T00:35:25.132Z,100458.03
2023-03-26T00:37:55.624Z,100457.41
2023-03-26T00:40:25.831Z,100459.31
2023-03-26T00:42:56.054Z,100455.06
2023-03-26T00:45:25.818Z,100448.19
2023-03-26T00:47:55.655Z,100448.78
2023-03-26T00:50:25.870Z,100444.13
2023-03-26T00:52:56.925Z,100433.56
2023-03-26T00:55:27.184Z,100430.88
2023-03-26T00:57:57.516Z,100429.88
2023-03-26T01:00:37.625Z,100420.44
2023-03-26T01:03:08.490Z,100416.31
2023-03-26T01:05:44.228Z,100411.69
2023-03-26T01:08:30.241Z,100407.97
2023-03-26T01:11:06.392Z,100405.09
2023-03-26T01:13:41.161Z,100405.44
2023-03-26T01:16:31.190Z,100417.41
2023-03-26T01:19:01.648Z,100418.84
2023-03-26T01:21:32.870Z,100412.34
2023-03-26T01:24:07.773Z,100409.25
2023-03-26T01:26:40.934Z,100412.47
2023-03-26T01:29:21.802Z,100398.00
2023-03-26T01:32:36.102Z,100395.25
2023-03-26T01:35:34.685Z,100378.56
2023-03-26T01:38:36.684Z,100375.53
2023-03-26T01:41:13.472Z,100375.53
2023-03-26T01:44:06.228Z,100363.16
2023-03-26T01:46:37.469Z,100366.22
2023-03-26T01:49:14.254Z,100363.41
2023-03-26T01:51:44.623Z,100371.94
2023-03-26T01:54:24.409Z,100382.69
2023-03-26T01:57:15.665Z,100380.72
2023-03-26T01:59:57.749Z,100378.28
2023-03-26T02:02:41.482Z,100375.06
2023-03-26T02:05:32.427Z,100390.28
2023-03-26T02:08:13.154Z,100389.03
2023-03-26T02:10:50.844Z,100389.13
2023-03-26T02:13:21.483Z,100379.31
2023-03-26T02:16:00.825Z,100369.19
2023-03-26T02:18:42.295Z,100368.22
2023-03-26T02:21:16.612Z,100361.09
2023-03-26T02:23:49.823Z,100356.25
2023-03-26T02:26:21.901Z,100354.94
2023-03-26T02:29:13.530Z,100363.59
2023-03-26T02:31:47.598Z,100351.22
2023-03-26T02:34:17.914Z,100350.09
2023-03-26T02:36:58.281Z,100340.59
2023-03-26T02:39:28.239Z,100335.78
2023-03-26T02:42:04.848Z,100345.31
2023-03-26T02:44:41.402Z,100341.94
2023-03-26T02:47:11.657Z,100342.13
2023-03-26T02:49:50.550Z,100338.47
2023-03-26T02:52:41.133Z,100344.38
2023-03-26T02:55:11.079Z,100327.53
2023-03-26T02:57:43.277Z,100339.97
2023-03-26T03:00:25.019Z,100331.28
2023-03-26T03:03:14.288Z,100326.50
2023-03-26T03:06:02.295Z,100324.94
2023-03-26T03:08:37.469Z,100333.16
2023-03-26T03:11:16.962Z,100332.31
2023-03-26T03:13:50.829Z,100339.22
2023-03-26T03:16:32.459Z,100335.25
2023-03-26T03:19:11.836Z,100333.97
2023-03-26T03:21:43.548Z,100331.41
2023-03-26T03:24:14.991Z,100331.75
2023-03-26T03:26:48.638Z,100334.50
2023-03-26T03:29:40.943Z,100333.19
2023-03-26T03:32:45.524Z,100351.66
2023-03-26T03:35:19.941Z,100355.19
2023-03-26T03:37:53.253Z,100356.22
2023-03-26T03:40:23.489Z,100353.63
2023-03-26T03:42:53.416Z,100347.03
2023-03-26T03:45:33.000Z,100346.22
2023-03-26T03:48:25.512Z,100352.59
2023-03-26T03:50:57.308Z,100348.50
2023-03-26T03:53:30.011Z,100358.31
2023-03-26T03:56:03.160Z,100352.63
2023-03-26T03:58:52.753Z,100354.50
2023-03-26T04:01:31.938Z,100336.91
2023-03-26T04:04:09.750Z,100338.59
2023-03-26T04:07:15.137Z,100336.72
2023-03-26T04:10:09.948Z,100333.50
2023-03-26T04:12:58.602Z,100333.22
2023-03-26T04:15:46.818Z,100324.16
2023-03-26T04:18:17.136Z,100326.13
2023-03-26T04:20:48.664Z,100326.28
2023-03-26T04:23:24.583Z,100325.06
2023-03-26T04:26:05.414Z,100337.81
2023-03-26T04:29:07.499Z,100328.84
2023-03-26T04:31:39.414Z,100324.78
2023-03-26T04:34:19.585Z,100316.66
2023-03-26T04:36:59.886Z,100312.16
2023-03-26T04:39:35.497Z,100310.72
2023-03-26T04:42:25.384Z,100311.03
2023-03-26T04:45:12.443Z,100312.00
2023-03-26T04:47:44.127Z,100312.13
2023-03-26T04:50:14.659Z,100300.66
2023-03-26T04:52:45.392Z,100298.09
2023-03-26T04:55:25.595Z,100299.66
2023-03-26T04:58:06.630Z,100305.28
2023-03-26T05:00:56.383Z,100304.69
2023-03-26T05:03:26.824Z,100301.75
2023-03-26T05:05:58.491Z,100301.47
2023-03-26T05:08:29.933Z,100296.47
2023-03-26T05:11:00.143Z,100294.81
2023-03-26T05:13:35.770Z,100294.81
2023-03-26T05:16:12.278Z,100295.09
2023-03-26T05:18:47.675Z,100290.81
2023-03-26T05:21:18.203Z,100284.84
2023-03-26T05:23:48.360Z,100301.25
2023-03-26T05:26:21.505Z,100292.47
2023-03-26T05:28:52.687Z,100292.22
2023-03-26T05:31:31.928Z,100286.44
2023-03-26T05:34:02.739Z,100285.50
2023-03-26T05:36:33.115Z,100288.25
2023-03-26T05:39:26.819Z,100287.13
2023-03-26T05:42:23.029Z,100285.72
2023-03-26T05:45:13.610Z,100288.75
2023-03-26T05:47:44.334Z,100279.53
2023-03-26T05:50:14.200Z,100269.44
2023-03-26T05:52:45.837Z,100274.09
2023-03-26T05:55:34.521Z,100275.16
2023-03-26T05:58:28.854Z,100275.16
2023-03-26T06:01:20.681Z,100269.22
2023-03-26T06:04:20.211Z,100261.72
2023-03-26T06:07:13.107Z,100251.09
2023-03-26T06:09:47.602Z,100250.06
2023-03-26T06:12:17.670Z,100251.91
2023-03-26T06:14:48.437Z,100250.97
2023-03-26T06:17:25.916Z,100252.56
2023-03-26T06:20:09.413Z,100242.09
2023-03-26T06:22:42.921Z,100242.44
2023-03-26T06:25:24.346Z,100254.88
2023-03-26T06:28:06.884Z,100243.25
2023-03-26T06:30:57.517Z,100245.25
2023-03-26T06:33:43.380Z,100252.19
2023-03-26T06:36:16.043Z,100247.44
2023-03-26T06:38:46.354Z,100240.91
2023-03-26T06:41:16.581Z,100231.19
2023-03-26T06:43:59.608Z,100229.13
2023-03-26T06:46:53.167Z,100229.28
2023-03-26T06:49:45.904Z,100225.16
2023-03-26T06:52:34.289Z,100228.00
2023-03-26T06:55:12.193Z,100230.25
2023-03-26T06:58:08.680Z,100234.34
2023-03-26T07:01:07.321Z,100235.13
2023-03-26T07:03:55.879Z,100238.34
2023-03-26T07:06:48.106Z,100234.13
2023-03-26T07:09:49.160Z,100234.06
2023-03-26T07:12:37.186Z,100243.13
2023-03-26T07:15:25.686Z,100271.72
2023-03-26T07:18:30.474Z,100280.41
2023-03-26T07:21:01.516Z,100286.44
2023-03-26T07:23:34.053Z,100292.53
2023-03-26T07:27:04.024Z,100293.06
2023-03-26T07:30:05.618Z,100309.84
2023-03-26T07:33:01.075Z,100314.50
2023-03-26T07:36:18.516Z,100306.34
2023-03-26T07:39:39.337Z,100337.13
2023-03-26T07:42:40.410Z,100348.03
2023-03-26T07:45:39.204Z,100342.66
2023-03-26T07:48:29.367Z,100345.78
2023-03-26T07:51:19.766Z,100349.31
2023-03-26T07:54:05.336Z,100355.56
2023-03-26T07:57:36.735Z,100365.00
2023-03-26T08:00:38.764Z,100365.59
2023-03-26T08:03:32.038Z,100377.16
2023-03-26T08:06:07.130Z,100382.34
2023-03-26T08:09:04.708Z,100390.97
2023-03-26T08:11:59.251Z,100394.06
2023-03-26T08:14:42.420Z,100405.63
2023-03-26T08:17:17.399Z,100408.28
2023-03-26T08:19:55.858Z,100417.91
2023-03-26T08:22:35.588Z,100425.22
2023-03-26T08:25:11.679Z,100425.94
2023-03-26T08:27:44.996Z,100424.09
2023-03-26T08:30:22.463Z,100430.00
2023-03-26T08:33:20.340Z,100443.72
2023-03-26T08:35:51.126Z,100450.31
2023-03-26T08:38:22.957Z,100455.16
2023-03-26T08:41:16.360Z,100453.97
2023-03-26T08:44:09.708Z,100461.03
2023-03-26T08:46:57.718Z,100464.25
2023-03-26T08:49:36.335Z,100473.09
2023-03-26T08:52:18.027Z,100481.31
2023-03-26T08:55:07.280Z,100484.84
2023-03-26T08:58:05.518Z,100489.38
2023-03-26T09:00:35.634Z,100493.31
2023-03-26T09:03:48.323Z,100504.84
2023-03-26T09:06:44.396Z,100504.00
2023-03-26T09:09:35.369Z,100513.25
2023-03-26T09:12:42.675Z,100513.78
2023-03-26T09:15:51.405Z,100522.84
2023-03-26T09:18:45.488Z,100516.44
2023-03-26T09:21:33.618Z,100520.97
2023-03-26T09:24:28.753Z,100520.41
2023-03-26T09:27:22.101Z,100520.25
2023-03-26T09:30:21.322Z,100538.47
2023-03-26T09:33:29.765Z,100552.19
2023-03-26T09:36:24.507Z,100558.22
2023-03-26T09:39:01.553Z,100551.47
2023-03-26T09:41:34.268Z,100564.78
2023-03-26T09:44:12.789Z,100572.50
2023-03-26T09:46:56.636Z,100576.47
2023-03-26T09:49:43.616Z,100581.13
2023-03-26T09:52:13.802Z,100581.28
2023-03-26T09:55:09.750Z,100584.50
2023-03-26T09:57:39.922Z,100588.38
2023-03-26T10:00:17.841Z,100586.41
2023-03-26T10:03:27.434Z,100589.78
2023-03-26T10:06:27.825Z,100602.94
2023-03-26T10:09:00.712Z,100604.22
2023-03-26T10:11:34.485Z,100614.00
2023-03-26T10:14:08.389Z,100613.06
2023-03-26T10:17:17.969Z,100615.75
2023-03-26T10:20:03.539Z,100618.94
2023-03-26T10:22:42.546Z,100614.53
2023-03-26T10:25:32.089Z,100624.09
2023-03-26T10:28:15.518Z,100637.09
2023-03-26T10:31:20.490Z,100638.91
2023-03-26T10:34:28.546Z,100650.19
2023-03-26T10:37:05.030Z,100647.31
2023-03-26T10:39:43.541Z,100653.53
2023-03-26T10:42:22.499Z,100660.56
2023-03-26T10:45:23.637Z,100658.44
2023-03-26T10:48:14.968Z,100654.56
2023-03-26T10:50:56.156Z,100661.94
2023-03-26T10:53:50.601Z,100672.09
2023-03-26T10:56:53.048Z,100684.19
2023-03-26T10:59:23.298Z,100673.47
2023-03-26T11:02:30.512Z,100682.19
2023-03-26T11:05:16.109Z,100686.78
2023-03-26T11:07:54.981Z,100692.63
2023-03-26T11:10:38.354Z,100700.66
2023-03-26T11:13:35.753Z,100703.50
2023-03-26T11:16:15.736Z,100709.56
2023-03-26T11:19:25.712Z,100712.34
2023-03-26T11:22:39.555Z,100718.75
2023-03-26T11:25:32.469Z,100712.97
2023-03-26T11:28:22.323Z,100719.19
2023-03-26T11:31:10.698Z,100726.72
2023-03-26T11:33:47.718Z,100729.75
2023-03-26T11:39:16.675Z,100739.69
2023-03-26T11:41:47.611Z,100739.69
2023-03-26T11:44:37.948Z,100751.16
2023-03-26T11:47:13.282Z,100743.94
2023-03-26T11:49:44.204Z,100754.31
2023-03-26T11:52:16.868Z,100743.94
2023-03-26T11:54:49.549Z,100752.66
2023-03-26T11:57:27.697Z,100762.78
2023-03-26T12:00:05.496Z,100754.22
2023-03-26T12:02:42.819Z,100762.94
2023-03-26T12:05:17.101Z,100766.19
2023-03-26T12:07:57.008Z,100766.63
2023-03-26T12:10:39.924Z,100772.34
2023-03-26T12:13:56.087Z,100776.91
2023-03-26T12:16:25.894Z,100782.50
2023-03-26T12:19:09.319Z,100794.66
2023-03-26T12:21:54.044Z,100799.00
2023-03-26T12:24:35.275Z,100804.00
2023-03-26T12:27:29.597Z,100807.94
2023-03-26T12:30:13.601Z,100812.19
2023-03-26T12:32:46.915Z,100815.56
2023-03-26T12:35:27.813Z,100817.00
2023-03-26T12:38:25.179Z,100825.28
2023-03-26T12:41:07.839Z,100832.00
2023-03-26T12:44:47.212Z,100823.31
2023-03-26T12:47:57.381Z,100825.06
2023-03-26T12:49:27.798Z,100820.16
2023-03-26T12:52:12.144Z,100823.09
2023-03-26T12:55:12.135Z,100820.97
2023-03-26T12:58:14.006Z,100825.63
2023-03-26T13:04:06.684Z,100834.69
2023-03-26T13:06:59.078Z,100843.94
2023-03-26T13:09:45.243Z,100849.63
2023-03-26T13:12:28.306Z,100847.22
2023-03-26T13:15:16.819Z,100842.97
2023-03-26T13:18:08.651Z,100846.50
2023-03-26T13:20:43.177Z,100845.22
2023-03-26T13:23:18.923Z,100852.16
2023-03-26T13:25:55.057Z,100841.53
2023-03-26T13:28:49.568Z,100832.75
2023-03-26T13:31:41.155Z,100830.47
2023-03-26T13:34:24.980Z,100841.25
2023-03-26T13:37:13.928Z,100839.69
2023-03-26T13:40:11.985Z,100840.53
2023-03-26T13:42:56.819Z,100839.63
2023-03-26T13:45:41.467Z,100836.69
2023-03-26T13:48:20.626Z,100826.78
2023-03-26T13:50:59.440Z,100824.50
2023-03-26T13:53:55.037Z,100825.56
2023-03-26T13:56:34.044Z,100829.00
2023-03-26T13:59:21.902Z,100828.47
2023-03-26T14:01:57.798Z,100820.00
2023-03-26T14:04:35.543Z,100821.13
2023-03-26T14:07:20.178Z,100818.88
2023-03-26T14:10:00.282Z,100824.38
2023-03-26T14:12:50.345Z,100829.41
2023-03-26T14:15:40.176Z,100837.56
2023-03-26T14:18:32.850Z,100831.94
2023-03-26T14:21:22.942Z,100829.34
2023-03-26T14:24:11.477Z,100839.47
2023-03-26T14:26:44.711Z,100841.75
2023-03-26T14:29:14.469Z,100840.00
2023-03-26T14:31:51.041Z,100843.13
2023-03-26T14:34:44.311Z,100842.13
2023-03-26T14:37:27.321Z,100852.63
2023-03-26T14:40:18.111Z,100843.03
2023-03-26T14:43:03.275Z,100848.88
2023-03-26T14:46:20.264Z,100842.75
2023-03-26T14:49:04.955Z,100852.09
2023-03-26T14:51:57.962Z,100845.09
2023-03-26T14:54:31.180Z,100857.59
2023-03-26T14:57:11.063Z,100853.09
2023-03-26T15:00:16.754Z,100865.00
2023-03-26T15:03:11.157Z,100858.47
2023-03-26T15:06:02.371Z,100862.03
2023-03-26T15:08:53.451Z,100865.00
2023-03-26T15:11:26.629Z,100857.31
2023-03-26T15:14:25.161Z,100854.50
2023-03-26T15:16:57.764Z,100847.38
2023-03-26T15:20:04.433Z,100849.44
2023-03-26T15:23:09.521Z,100847.38
2023-03-26T15:25:56.951Z,100837.50
2023-03-26T15:28:45.098Z,100841.13
2023-03-26T15:31:43.614Z,100845.19
2023-03-26T15:34:44.272Z,100846.28
2023-03-26T15:37:35.822Z,100840.97
2023-03-26T15:40:34.527Z,100844.50
2023-03-26T15:43:07.856Z,100844.25
2023-03-26T15:46:00.258Z,100843.66
2023-03-26T15:48:33.486Z,100844.06
2023-03-26T15:51:46.765Z,100847.63
2023-03-26T15:55:21.830Z,100839.53
2023-03-26T15:58:06.177Z,100839.81
2023-03-26T16:01:04.198Z,100840.66
2023-03-26T16:03:58.220Z,100826.53
2023-03-26T16:06:32.165Z,100821.84
2023-03-26T16:09:04.572Z,100830.53
2023-03-26T16:12:00.039Z,100834.47
2023-03-26T16:14:49.296Z,100842.34
2023-03-26T16:17:24.442Z,100836.34
2023-03-26T16:20:33.731Z,100838.13
2023-03-26T16:23:07.330Z,100835.41
2023-03-26T16:26:00.092Z,100829.13
2023-03-26T16:28:33.771Z,100826.91
2023-03-26T16:31:23.602Z,100818.56
2023-03-26T16:34:01.104Z,100807.25
2023-03-26T16:36:45.863Z,100814.47
2023-03-26T16:39:38.952Z,100823.63
2023-03-26T16:42:39.807Z,100813.88
2023-03-26T16:45:35.890Z,100818.00
2023-03-26T16:48:37.050Z,100816.06
2023-03-26T16:51:19.714Z,100811.97
2023-03-26T16:54:14.541Z,100805.44
2023-03-26T16:56:52.463Z,100817.59
2023-03-26T17:00:07.676Z,100803.91
2023-03-26T17:02:53.601Z,100823.22
2023-03-26T17:05:27.149Z,100833.78
2023-03-26T17:08:36.501Z,100828.81
2023-03-26T17:11:23.876Z,100831.63
2023-03-26T17:14:13.144Z,100832.00
2023-03-26T17:17:09.306Z,100843.81
2023-03-26T17:19:50.993Z,100846.16
2023-03-26T17:22:30.967Z,100851.31
2023-03-26T17:25:21.628Z,100846.03
2023-03-26T17:28:44.892Z,100848.34
2023-03-26T17:31:32.762Z,100843.94
2023-03-26T17:34:40.279Z,100848.47
2023-03-26T17:37:18.561Z,100838.91
2023-03-26T17:39:48.774Z,100842.06
2023-03-26T17:42:19.914Z,100839.75
2023-03-26T17:45:00.850Z,100827.91
2023-03-26T17:47:36.858Z,100821.59
2023-03-26T17:50:13.202Z,100825.53
2023-03-26T17:53:17.801Z,100824.25
2023-03-26T17:55:51.184Z,100827.44
2023-03-26T17:58:28.161Z,100823.59
2023-03-26T18:01:23.761Z,100812.66
2023-03-26T18:04:03.850Z,100821.09
2023-03-26T18:06:58.754Z,100814.38
2023-03-26T18:09:47.916Z,100816.69
2023-03-26T18:12:45.045Z,100816.75
2023-03-26T18:15:43.853Z,100822.19
2023-03-26T18:18:29.762Z,100818.16
2023-03-26T18:21:03.445Z,100812.94
2023-03-26T18:23:38.006Z,100803.97
2023-03-26T18:26:35.616Z,100797.69
2023-03-26T18:29:28.431Z,100806.00
2023-03-26T18:32:08.526Z,100798.34
2023-03-26T18:34:41.577Z,100810.22
2023-03-26T18:37:35.336Z,100799.56
2023-03-26T18:40:17.652Z,100804.00
2023-03-26T18:42:52.860Z,100816.13
2023-03-26T18:45:37.497Z,100811.25
2023-03-26T18:48:15.207Z,100808.75
2023-03-26T18:50:46.499Z,100810.78
2023-03-26T18:53:22.519Z,100804.72
2023-03-26T18:55:53.615Z,100801.59
2023-03-26T18:58:34.000Z,100799.91
2023-03-26T19:01:14.382Z,100802.13
2023-03-26T19:03:54.861Z,100812.38
2023-03-26T19:06:27.111Z,100810.66
2023-03-26T19:08:59.276Z,100808.34
2023-03-26T19:11:32.377Z,100807.91
2023-03-26T19:14:23.703Z,100808.06
2023-03-26T19:17:02.082Z,100804.69
2023-03-26T19:19:35.356Z,100802.72
2023-03-26T19:22:12.629Z,100801.19
2023-03-26T19:24:43.953Z,100806.31
2023-03-26T19:27:14.292Z,100810.31
2023-03-26T19:29:45.986Z,100811.66
2023-03-26T19:32:22.557Z,100811.53
2023-03-26T19:34:53.674Z,100818.47
2023-03-26T19:37:26.402Z,100819.63
2023-03-26T19:40:08.369Z,100827.38
2023-03-26T19:42:43.467Z,100844.81
2023-03-26T19:45:29.596Z,100841.03
2023-03-26T19:48:14.417Z,100856.22
2023-03-26T19:50:54.369Z,100856.72
2023-03-26T19:53:36.654Z,100865.50
2023-03-26T19:56:20.619Z,100866.53
2023-03-26T19:58:53.924Z,100877.19
2023-03-26T20:01:26.773Z,100881.72
2023-03-26T20:04:01.056Z,100872.31
2023-03-26T20:06:42.631Z,100862.69
2023-03-26T20:09:15.308Z,100876.72
2023-03-26T20:11:47.683Z,100876.63
2023-03-26T20:14:26.950Z,100876.78
2023-03-26T20:16:57.965Z,100886.09
2023-03-26T20:19:28.570Z,100886.34
2023-03-26T20:21:59.900Z,100877.16
2023-03-26T20:24:32.316Z,100874.91
2023-03-26T20:27:02.694Z,100878.44
2023-03-26T20:29:32.339Z,100889.91
2023-03-26T20:32:02.207Z,100893.50
2023-03-26T20:34:33.202Z,100885.97
2023-03-26T20:37:04.257Z,100887.28
2023-03-26T20:39:35.570Z,100888.19
2023-03-26T20:42:05.556Z,100879.22
2023-03-26T20:44:35.222Z,100880.44
2023-03-26T20:47:06.237Z,100881.78
2023-03-26T20:49:36.525Z,100886.25
2023-03-26T20:52:06.878Z,100886.25
2023-03-26T20:54:36.962Z,100891.19
2023-03-26T20:57:07.556Z,100901.25
2023-03-26T20:59:37.268Z,100894.75
2023-03-26T21:02:07.562Z,100895.03
2023-03-26T21:04:37.199Z,100896.75
2023-03-26T21:07:17.809Z,100898.56
2023-03-26T21:09:50.333Z,100900.16
2023-03-26T21:12:32.455Z,100895.03
2023-03-26T21:15:09.964Z,100901.34
2023-03-26T21:17:43.771Z,100894.84
2023-03-26T21:20:14.910Z,100901.66
2023-03-26T21:23:12.856Z,100911.53
2023-03-26T21:25:50.070Z,100916.72
2023-03-26T21:28:22.048Z,100916.50
2023-03-26T21:30:53.254Z,100918.00
2023-03-26T21:33:24.971Z,100920.78
2023-03-26T21:35:58.641Z,100926.47
2023-03-26T21:38:33.872Z,100928.72
2023-03-26T21:41:05.043Z,100929.50
2023-03-26T21:43:34.977Z,100936.69
2023-03-26T21:46:06.061Z,100933.47
2023-03-26T21:48:37.443Z,100941.50
2023-03-26T21:51:09.291Z,100937.38
2023-03-26T21:53:39.656Z,100939.31
2023-03-26T21:56:19.924Z,100933.94
2023-03-26T21:59:12.021Z,100934.00
2023-03-26T22:02:20.495Z,100937.00
2023-03-26T22:05:22.139Z,100938.03
2023-03-26T22:08:06.585Z,100942.63
2023-03-26T22:10:36.781Z,100938.75
2023-03-26T22:13:06.458Z,100949.97
2023-03-26T22:15:36.823Z,100946.59
2023-03-26T22:18:08.550Z,100941.75
2023-03-26T22:20:38.938Z,100941.22
2023-03-26T22:23:10.519Z,100942.59
2023-03-26T22:25:41.033Z,100942.28
2023-03-26T22:28:10.844Z,100937.41
2023-03-26T22:30:41.168Z,100943.16
2023-03-26T22:33:14.086Z,100949.94
2023-03-26T22:35:44.430Z,100950.88
2023-03-26T22:38:14.726Z,100950.88
2023-03-26T22:40:44.864Z,100957.28
2023-03-26T22:43:14.446Z,100957.47
2023-03-26T22:45:52.526Z,100970.28
2023-03-26T22:48:24.582Z,100973.53
2023-03-26T22:51:06.882Z,100979.63
2023-03-26T22:53:37.688Z,100984.59
2023-03-26T22:56:08.377Z,100994.25
2023-03-26T22:58:39.178Z,100987.44
2023-03-26T23:01:12.976Z,100990.31
2023-03-26T23:03:44.093Z,100991.38
2023-03-26T23:06:14.597Z,100998.16
2023-03-26T23:08:44.838Z,101004.97
2023-03-26T23:11:19.948Z,101016.00
2023-03-26T23:13:50.479Z,101018.34
2023-03-26T23:16:22.502Z,101034.75
2023-03-26T23:18:52.727Z,101019.78
2023-03-26T23:21:23.638Z,101026.38
2023-03-26T23:23:54.008Z,101026.50
2023-03-26T23:26:25.421Z,101030.84
2023-03-26T23:28:55.650Z,101030.63
2023-03-26T23:31:26.468Z,101022.22
2023-03-26T23:33:56.684Z,101032.22
2023-03-26T23:36:26.475Z,101044.69
2023-03-26T23:38:56.282Z,101042.41
2023-03-26T23:41:26.497Z,101047.41
2023-03-26T23:43:56.788Z,101050.75
2023-03-26T23:46:31.262Z,101060.03
2023-03-26T23:49:03.498Z,101069.69
2023-03-26T23:51:34.075Z,101067.84
2023-03-26T23:54:04.529Z,101075.22
2023-03-26T23:56:34.440Z,101085.00
2023-03-26T23:59:06.071Z,101083.59
